Mancos, CO (81328)

8:25 AM MDT on August 27, 2014 (GMT -0600)
RAWS MOREFIELD CO US | Change Station
CLOSE
Current Station
Personal Weather Station
Location: Mesa Verde, CO
Elevation: 7819 ft
Nearby Weather Stations
Active Advisory: Special Statement Active Notice: Public Information Statement

Elev 7819 ft 37.30 °N, 108.41 °W | Updated 45 minutes ago

Overcast
Overcast
47 °F
Feels Like 47 °F
N
1
Wind Variable Wind from WSW
Gusts 4.0 mph

Today
High -- | Low -- °F
--% Chance of Precip.
Yesterday
High -- | Low -- °F
Precip. -- in
6:39 AM 7:49 PM
Waxing Crescent, 4% visible
Pressure 30.35 in
Visibility 10.0 miles
Clouds Mostly Cloudy 800 ft
Overcast 10000 ft
Windchill 47 °F
Dew Point 43 °F
Humidity 87%
Rainfall 0.36 in
Snow Depth 2 in , 1 in , 0 in
UV 0 out of 12
Pollen 5.50 out of 12
Air Quality Not available.
Flu Activity Not available.
SPECI KCEZ 271405Z AUTO 07006KT 10SM BKN008 OVC100 12/12 A3035 RMK AO2 CIG 006V010 T01220117 $

More Conditions Fewer Conditions

Pressure 30.35 in
Visibility 10.0 miles
Clouds Mostly Cloudy 800 ft
Overcast 10000 ft
Windchill 47 °F
Dew Point 43 °F
Humidity 87%
Rainfall 0.36 in
Snow Depth 2 in , 1 in , 0 in
UV 0 out of 12
Pollen 5.50 out of 12
Air Quality Not available.
Flu Activity Not available.
SPECI KCEZ 271405Z AUTO 07006KT 10SM BKN008 OVC100 12/12 A3035 RMK AO2 CIG 006V010 T01220117 $

More Conditions Fewer Conditions

10-Day Weather Forecast

Almanac

Astronomy

Aug. 27, 2014 Rise Set
Actual Time 6:39 AM MDT 7:49 PM MDT
Civil Twilight 6:12 AM MDT 8:16 PM MDT
Nautical Twilight 5:40 AM MDT 8:48 PM MDT
Astronomical Twilight 5:07 AM MDT 9:21 PM MDT
Moon 8:35 AM MDT 8:47 PM MDT
Length of Visible Light 14h 03m
Length of Day
13h 09m
Tomorrow will be 2m 15s shorter.
Waxing Crescent, 4% of the Moon is Illuminated
Today
Waxing Crescent
Sep 2
First Quarter
Sep 8
Full
Sep 15
Last Quarter
Sep 24
New

Today's Extremes

State Highs State Lows

Community

WunderPhotos

Upload Photos

1,747,690 photos uploaded!

Nearby

Snow Depth

Station Depth Elevation
Mancos 2 in 10000 ft
Sharkstooth 1 in 10720 ft
Columbus Basin 0 in 10785 ft
Scotch Creek 0 in 9100 ft
El Diente Peak 1 in 10200 ft

Earthquake Activity

City Distance Mag. Time & Date
No recent earthquake activity has been reported nearby.
Minimum magnitude displayed is 2.5.

Coastal Water Temperatures

Place Temperature
No Stations Reporting

Nearby Weather Stations